createdAt,value
2022-11-19T00:02:56.266Z,8.88
2022-11-19T00:18:01.858Z,8.88
2022-11-19T00:33:07.485Z,8.81
2022-11-19T00:48:13.092Z,8.75
2022-11-19T01:03:19.020Z,8.69
2022-11-19T01:18:24.439Z,8.69
2022-11-19T01:33:30.081Z,8.56
2022-11-19T01:48:40.464Z,8.63
2022-11-19T02:03:46.318Z,8.63
2022-11-19T02:18:56.164Z,8.50
2022-11-19T02:34:05.887Z,8.31
2022-11-19T02:49:13.257Z,7.81
2022-11-19T03:04:34.365Z,7.69
2022-11-19T03:19:45.588Z,7.94
2022-11-19T03:34:54.527Z,8.00
2022-11-19T03:50:02.786Z,8.00
2022-11-19T04:05:09.664Z,8.25
2022-11-19T04:20:15.834Z,8.44
2022-11-19T04:35:22.246Z,8.25
2022-11-19T04:50:27.842Z,8.19
2022-11-19T05:05:33.444Z,7.75
2022-11-19T05:20:38.952Z,7.31
2022-11-19T05:35:44.596Z,7.38
2022-11-19T05:50:50.055Z,7.69
2022-11-19T06:05:55.629Z,7.94
2022-11-19T06:21:01.145Z,8.00
2022-11-19T06:36:08.163Z,8.13
2022-11-19T06:51:13.725Z,8.06
2022-11-19T07:06:19.319Z,8.06
2022-11-19T07:21:24.855Z,8.00
2022-11-19T07:36:30.356Z,8.19
2022-11-19T07:51:36.085Z,8.38
2022-11-19T08:06:41.839Z,8.38
2022-11-19T08:21:48.682Z,8.56
2022-11-19T08:36:54.336Z,9.06
2022-11-19T08:51:59.927Z,9.25
2022-11-19T09:07:05.951Z,9.31
2022-11-19T09:22:11.779Z,9.44
2022-11-19T09:37:18.679Z,9.50
2022-11-19T09:52:30.211Z,9.44
2022-11-19T10:07:46.793Z,9.88
2022-11-19T10:22:57.915Z,10.25
2022-11-19T10:38:05.185Z,10.44
2022-11-19T10:53:17.471Z,10.63
2022-11-19T11:08:23.942Z,10.75
2022-11-19T11:23:31.621Z,10.69
2022-11-19T11:38:42.943Z,10.63
2022-11-19T11:54:06.966Z,10.63
2022-11-19T12:09:21.557Z,11.00
2022-11-19T12:24:46.759Z,10.75
2022-11-19T12:39:57.160Z,10.69
2022-11-19T12:55:10.664Z,10.75
2022-11-19T13:10:20.644Z,10.75
2022-11-19T13:25:29.010Z,10.69
2022-11-19T13:40:38.686Z,10.50
2022-11-19T13:55:46.458Z,10.56
2022-11-19T14:11:04.763Z,10.50
2022-11-19T14:26:22.829Z,10.25
2022-11-19T14:41:35.039Z,10.13
2022-11-19T14:56:41.841Z,9.88
2022-11-19T15:12:03.052Z,9.75
2022-11-19T15:27:18.943Z,9.56
2022-11-19T15:42:33.510Z,9.44
2022-11-19T15:57:44.347Z,9.44
2022-11-19T16:13:15.206Z,9.38
2022-11-19T16:28:24.970Z,9.19
2022-11-19T16:43:31.946Z,9.06
2022-11-19T16:58:39.490Z,9.06
2022-11-19T17:13:45.295Z,9.06
2022-11-19T17:28:54.335Z,9.13
2022-11-19T17:44:17.380Z,9.13
2022-11-19T17:59:23.135Z,9.00
2022-11-19T18:14:28.617Z,8.94
2022-11-19T18:29:34.414Z,8.94
2022-11-19T18:44:41.999Z,8.81
2022-11-19T18:59:47.454Z,8.81
2022-11-19T19:14:53.360Z,8.81
2022-11-19T19:29:59.194Z,8.69
2022-11-19T19:45:04.734Z,8.69
2022-11-19T20:00:12.715Z,8.69
2022-11-19T20:15:18.358Z,8.56
2022-11-19T20:30:24.037Z,8.63
2022-11-19T20:45:29.810Z,8.56
2022-11-19T21:00:35.666Z,8.50
2022-11-19T21:15:41.513Z,8.56
2022-11-19T21:30:53.549Z,8.44
2022-11-19T21:45:59.401Z,8.44
2022-11-19T22:01:06.338Z,8.44
2022-11-19T22:16:12.245Z,8.25
2022-11-19T22:31:17.918Z,8.25
2022-11-19T22:46:23.811Z,8.31
2022-11-19T23:01:31.093Z,8.25
2022-11-19T23:16:36.632Z,8.19
2022-11-19T23:31:42.885Z,8.13
2022-11-19T23:46:48.411Z,8.06
